sensor_id;sensor_type;location;lat;lon;timestamp;P1;durP1;ratioP1;P2;durP2;ratioP2
56455;SDS011;42354;53.218;6.564;2022-10-31T00:00:52;54.60;;;21.45;;
56455;SDS011;42354;53.218;6.564;2022-10-31T00:03:18;49.33;;;21.50;;
56455;SDS011;42354;53.218;6.564;2022-10-31T00:05:44;45.47;;;21.30;;
56455;SDS011;42354;53.218;6.564;2022-10-31T00:08:11;55.35;;;22.33;;
56455;SDS011;42354;53.218;6.564;2022-10-31T00:10:39;52.63;;;22.70;;
56455;SDS011;42354;53.218;6.564;2022-10-31T00:13:06;60.97;;;22.92;;
56455;SDS011;42354;53.218;6.564;2022-10-31T00:15:33;44.17;;;21.63;;
56455;SDS011;42354;53.218;6.564;2022-10-31T00:18:01;56.10;;;23.55;;
56455;SDS011;42354;53.218;6.564;2022-10-31T00:20:27;49.75;;;23.83;;
56455;SDS011;42354;53.218;6.564;2022-10-31T00:22:53;56.92;;;24.77;;
56455;SDS011;42354;53.218;6.564;2022-10-31T00:25:18;47.63;;;23.23;;
56455;SDS011;42354;53.218;6.564;2022-10-31T00:27:45;57.08;;;24.23;;
56455;SDS011;42354;53.218;6.564;2022-10-31T00:30:11;50.17;;;23.70;;
56455;SDS011;42354;53.218;6.564;2022-10-31T00:32:36;50.17;;;23.85;;
56455;SDS011;42354;53.218;6.564;2022-10-31T00:35:02;51.58;;;24.67;;
56455;SDS011;42354;53.218;6.564;2022-10-31T00:37:27;56.67;;;25.67;;
56455;SDS011;42354;53.218;6.564;2022-10-31T00:39:52;55.40;;;24.25;;
56455;SDS011;42354;53.218;6.564;2022-10-31T00:42:18;59.08;;;25.70;;
56455;SDS011;42354;53.218;6.564;2022-10-31T00:44:43;58.92;;;26.90;;
56455;SDS011;42354;53.218;6.564;2022-10-31T00:47:09;49.92;;;24.83;;
56455;SDS011;42354;53.218;6.564;2022-10-31T00:49:34;55.38;;;25.80;;
56455;SDS011;42354;53.218;6.564;2022-10-31T00:51:59;58.95;;;26.98;;
56455;SDS011;42354;53.218;6.564;2022-10-31T00:54:33;53.72;;;24.55;;
56455;SDS011;42354;53.218;6.564;2022-10-31T00:56:58;52.60;;;25.48;;
56455;SDS011;42354;53.218;6.564;2022-10-31T00:59:23;58.45;;;26.00;;
56455;SDS011;42354;53.218;6.564;2022-10-31T01:01:49;49.58;;;25.83;;
56455;SDS011;42354;53.218;6.564;2022-10-31T01:04:14;60.97;;;26.05;;
56455;SDS011;42354;53.218;6.564;2022-10-31T01:06:40;60.10;;;26.70;;
56455;SDS011;42354;53.218;6.564;2022-10-31T01:09:05;57.08;;;25.33;;
56455;SDS011;42354;53.218;6.564;2022-10-31T01:11:30;54.22;;;24.83;;
56455;SDS011;42354;53.218;6.564;2022-10-31T01:13:56;56.25;;;25.05;;
56455;SDS011;42354;53.218;6.564;2022-10-31T01:16:28;55.28;;;24.35;;
56455;SDS011;42354;53.218;6.564;2022-10-31T01:18:55;55.20;;;25.33;;
56455;SDS011;42354;53.218;6.564;2022-10-31T01:21:22;53.05;;;25.05;;
56455;SDS011;42354;53.218;6.564;2022-10-31T01:23:49;54.65;;;24.95;;
56455;SDS011;42354;53.218;6.564;2022-10-31T01:26:21;53.42;;;23.65;;
56455;SDS011;42354;53.218;6.564;2022-10-31T01:28:55;53.50;;;22.38;;
56455;SDS011;42354;53.218;6.564;2022-10-31T01:31:23;54.22;;;24.23;;
56455;SDS011;42354;53.218;6.564;2022-10-31T01:33:50;45.58;;;23.38;;
56455;SDS011;42354;53.218;6.564;2022-10-31T01:36:25;53.03;;;23.98;;
56455;SDS011;42354;53.218;6.564;2022-10-31T01:38:56;53.13;;;23.35;;
56455;SDS011;42354;53.218;6.564;2022-10-31T01:41:25;48.00;;;22.52;;
56455;SDS011;42354;53.218;6.564;2022-10-31T01:44:00;47.60;;;22.83;;
56455;SDS011;42354;53.218;6.564;2022-10-31T01:46:48;47.40;;;21.35;;
56455;SDS011;42354;53.218;6.564;2022-10-31T01:49:21;56.28;;;23.63;;
56455;SDS011;42354;53.218;6.564;2022-10-31T01:51:50;49.00;;;22.48;;
56455;SDS011;42354;53.218;6.564;2022-10-31T01:54:43;47.35;;;22.63;;
56455;SDS011;42354;53.218;6.564;2022-10-31T01:57:14;49.15;;;22.02;;
56455;SDS011;42354;53.218;6.564;2022-10-31T01:59:43;43.08;;;21.55;;
56455;SDS011;42354;53.218;6.564;2022-10-31T02:02:13;45.95;;;21.23;;
56455;SDS011;42354;53.218;6.564;2022-10-31T02:04:41;47.35;;;20.48;;
56455;SDS011;42354;53.218;6.564;2022-10-31T02:07:10;54.65;;;22.85;;
56455;SDS011;42354;53.218;6.564;2022-10-31T02:09:38;43.63;;;22.58;;
56455;SDS011;42354;53.218;6.564;2022-10-31T02:12:05;54.72;;;21.70;;
56455;SDS011;42354;53.218;6.564;2022-10-31T02:14:32;48.08;;;21.52;;
56455;SDS011;42354;53.218;6.564;2022-10-31T02:16:58;48.53;;;21.52;;
56455;SDS011;42354;53.218;6.564;2022-10-31T02:22:22;47.38;;;21.63;;
56455;SDS011;42354;53.218;6.564;2022-10-31T02:30:35;51.17;;;21.60;;
56455;SDS011;42354;53.218;6.564;2022-10-31T02:33:52;51.30;;;22.25;;
56455;SDS011;42354;53.218;6.564;2022-10-31T02:38:38;46.05;;;20.70;;
56455;SDS011;42354;53.218;6.564;2022-10-31T02:44:10;47.53;;;22.90;;
56455;SDS011;42354;53.218;6.564;2022-10-31T02:46:53;45.28;;;22.33;;
56455;SDS011;42354;53.218;6.564;2022-10-31T02:49:26;53.63;;;23.80;;
56455;SDS011;42354;53.218;6.564;2022-10-31T02:54:23;49.00;;;23.75;;
56455;SDS011;42354;53.218;6.564;2022-10-31T02:56:51;53.58;;;23.65;;
56455;SDS011;42354;53.218;6.564;2022-10-31T02:59:23;55.00;;;23.05;;
56455;SDS011;42354;53.218;6.564;2022-10-31T03:01:58;57.42;;;24.35;;
56455;SDS011;42354;53.218;6.564;2022-10-31T03:10:27;55.13;;;22.85;;
56455;SDS011;42354;53.218;6.564;2022-10-31T03:13:11;53.45;;;24.75;;
56455;SDS011;42354;53.218;6.564;2022-10-31T03:15:48;52.63;;;23.17;;
56455;SDS011;42354;53.218;6.564;2022-10-31T03:18:25;56.83;;;24.20;;
56455;SDS011;42354;53.218;6.564;2022-10-31T03:21:00;49.42;;;22.83;;
56455;SDS011;42354;53.218;6.564;2022-10-31T03:23:30;52.78;;;23.42;;
56455;SDS011;42354;53.218;6.564;2022-10-31T03:25:57;48.42;;;24.08;;
56455;SDS011;42354;53.218;6.564;2022-10-31T03:28:29;46.95;;;23.02;;
56455;SDS011;42354;53.218;6.564;2022-10-31T03:31:03;49.30;;;23.25;;
56455;SDS011;42354;53.218;6.564;2022-10-31T03:33:31;54.05;;;23.75;;
56455;SDS011;42354;53.218;6.564;2022-10-31T03:36:00;46.38;;;22.15;;
56455;SDS011;42354;53.218;6.564;2022-10-31T03:38:29;49.85;;;22.17;;
56455;SDS011;42354;53.218;6.564;2022-10-31T03:40:58;45.75;;;22.27;;
56455;SDS011;42354;53.218;6.564;2022-10-31T03:43:28;43.30;;;21.08;;
56455;SDS011;42354;53.218;6.564;2022-10-31T03:45:57;43.65;;;20.98;;
56455;SDS011;42354;53.218;6.564;2022-10-31T03:48:23;42.45;;;21.67;;
56455;SDS011;42354;53.218;6.564;2022-10-31T03:53:51;44.90;;;19.60;;
56455;SDS011;42354;53.218;6.564;2022-10-31T03:56:27;39.83;;;19.75;;
56455;SDS011;42354;53.218;6.564;2022-10-31T03:59:09;45.05;;;19.88;;
56455;SDS011;42354;53.218;6.564;2022-10-31T04:01:59;35.47;;;18.77;;
56455;SDS011;42354;53.218;6.564;2022-10-31T04:04:30;44.42;;;19.98;;
56455;SDS011;42354;53.218;6.564;2022-10-31T04:06:56;39.45;;;19.15;;
56455;SDS011;42354;53.218;6.564;2022-10-31T04:09:25;40.20;;;19.98;;
56455;SDS011;42354;53.218;6.564;2022-10-31T04:11:53;38.42;;;19.67;;
56455;SDS011;42354;53.218;6.564;2022-10-31T04:14:22;37.38;;;19.08;;
56455;SDS011;42354;53.218;6.564;2022-10-31T04:16:50;45.90;;;20.10;;
56455;SDS011;42354;53.218;6.564;2022-10-31T04:19:16;45.83;;;20.70;;
56455;SDS011;42354;53.218;6.564;2022-10-31T04:21:41;40.58;;;20.88;;
56455;SDS011;42354;53.218;6.564;2022-10-31T04:24:10;43.53;;;21.48;;
56455;SDS011;42354;53.218;6.564;2022-10-31T04:26:36;46.15;;;22.33;;
56455;SDS011;42354;53.218;6.564;2022-10-31T04:29:02;44.33;;;20.92;;
56455;SDS011;42354;53.218;6.564;2022-10-31T04:31:28;43.30;;;20.88;;
56455;SDS011;42354;53.218;6.564;2022-10-31T04:33:53;41.05;;;20.77;;
56455;SDS011;42354;53.218;6.564;2022-10-31T04:36:19;48.03;;;21.05;;
56455;SDS011;42354;53.218;6.564;2022-10-31T04:38:46;43.35;;;20.08;;
56455;SDS011;42354;53.218;6.564;2022-10-31T04:41:12;46.90;;;21.25;;
56455;SDS011;42354;53.218;6.564;2022-10-31T04:43:37;42.30;;;20.25;;
56455;SDS011;42354;53.218;6.564;2022-10-31T04:46:03;43.33;;;21.33;;
56455;SDS011;42354;53.218;6.564;2022-10-31T04:48:29;42.83;;;21.60;;
56455;SDS011;42354;53.218;6.564;2022-10-31T04:50:58;43.33;;;21.17;;
56455;SDS011;42354;53.218;6.564;2022-10-31T04:53:24;44.95;;;22.30;;
56455;SDS011;42354;53.218;6.564;2022-10-31T04:55:50;47.50;;;21.15;;
56455;SDS011;42354;53.218;6.564;2022-10-31T04:58:15;46.35;;;21.65;;
56455;SDS011;42354;53.218;6.564;2022-10-31T05:00:40;48.67;;;21.50;;
56455;SDS011;42354;53.218;6.564;2022-10-31T05:03:06;52.05;;;22.67;;
56455;SDS011;42354;53.218;6.564;2022-10-31T05:05:31;42.13;;;22.23;;
56455;SDS011;42354;53.218;6.564;2022-10-31T05:07:56;49.85;;;22.45;;
56455;SDS011;42354;53.218;6.564;2022-10-31T05:10:24;47.90;;;23.15;;
56455;SDS011;42354;53.218;6.564;2022-10-31T05:12:52;50.95;;;22.27;;
56455;SDS011;42354;53.218;6.564;2022-10-31T05:15:20;44.33;;;22.23;;
56455;SDS011;42354;53.218;6.564;2022-10-31T05:17:51;53.08;;;23.02;;
56455;SDS011;42354;53.218;6.564;2022-10-31T05:20:18;48.55;;;22.98;;
56455;SDS011;42354;53.218;6.564;2022-10-31T05:22:48;45.92;;;23.08;;
56455;SDS011;42354;53.218;6.564;2022-10-31T05:25:16;47.08;;;22.92;;
56455;SDS011;42354;53.218;6.564;2022-10-31T05:27:45;51.88;;;23.17;;
56455;SDS011;42354;53.218;6.564;2022-10-31T05:30:17;52.08;;;23.92;;
56455;SDS011;42354;53.218;6.564;2022-10-31T05:32:45;46.22;;;22.88;;
56455;SDS011;42354;53.218;6.564;2022-10-31T05:35:13;45.95;;;23.50;;
56455;SDS011;42354;53.218;6.564;2022-10-31T05:37:49;44.17;;;23.60;;
56455;SDS011;42354;53.218;6.564;2022-10-31T05:40:15;48.67;;;24.15;;
56455;SDS011;42354;53.218;6.564;2022-10-31T05:42:52;45.50;;;22.58;;
56455;SDS011;42354;53.218;6.564;2022-10-31T05:45:19;50.13;;;23.38;;
56455;SDS011;42354;53.218;6.564;2022-10-31T05:47:52;49.45;;;23.75;;
56455;SDS011;42354;53.218;6.564;2022-10-31T05:50:19;48.10;;;24.67;;
56455;SDS011;42354;53.218;6.564;2022-10-31T05:52:44;51.10;;;24.85;;
56455;SDS011;42354;53.218;6.564;2022-10-31T05:55:09;47.83;;;23.65;;
56455;SDS011;42354;53.218;6.564;2022-10-31T05:57:39;51.85;;;23.90;;
56455;SDS011;42354;53.218;6.564;2022-10-31T06:00:05;49.00;;;24.70;;
56455;SDS011;42354;53.218;6.564;2022-10-31T06:02:31;53.22;;;24.50;;
56455;SDS011;42354;53.218;6.564;2022-10-31T06:04:59;52.53;;;25.08;;
56455;SDS011;42354;53.218;6.564;2022-10-31T06:07:27;51.80;;;25.02;;
56455;SDS011;42354;53.218;6.564;2022-10-31T06:09:56;47.20;;;24.15;;
56455;SDS011;42354;53.218;6.564;2022-10-31T06:12:21;43.90;;;23.90;;
56455;SDS011;42354;53.218;6.564;2022-10-31T06:14:49;44.63;;;24.17;;
56455;SDS011;42354;53.218;6.564;2022-10-31T06:17:14;50.00;;;24.40;;
56455;SDS011;42354;53.218;6.564;2022-10-31T06:19:40;49.35;;;24.75;;
56455;SDS011;42354;53.218;6.564;2022-10-31T06:22:05;53.67;;;25.45;;
56455;SDS011;42354;53.218;6.564;2022-10-31T06:24:30;49.45;;;25.38;;
56455;SDS011;42354;53.218;6.564;2022-10-31T06:26:56;46.17;;;24.42;;
56455;SDS011;42354;53.218;6.564;2022-10-31T06:29:22;45.15;;;24.40;;
56455;SDS011;42354;53.218;6.564;2022-10-31T06:31:50;51.60;;;26.17;;
56455;SDS011;42354;53.218;6.564;2022-10-31T06:34:16;46.47;;;24.27;;
56455;SDS011;42354;53.218;6.564;2022-10-31T06:36:42;48.13;;;25.17;;
56455;SDS011;42354;53.218;6.564;2022-10-31T06:39:07;51.63;;;25.83;;
56455;SDS011;42354;53.218;6.564;2022-10-31T06:41:32;58.75;;;25.23;;
56455;SDS011;42354;53.218;6.564;2022-10-31T06:43:59;49.10;;;24.88;;
56455;SDS011;42354;53.218;6.564;2022-10-31T06:46:24;48.53;;;25.73;;
56455;SDS011;42354;53.218;6.564;2022-10-31T06:48:49;48.90;;;24.25;;
56455;SDS011;42354;53.218;6.564;2022-10-31T06:51:15;44.28;;;24.13;;
56455;SDS011;42354;53.218;6.564;2022-10-31T06:53:40;49.17;;;24.73;;
56455;SDS011;42354;53.218;6.564;2022-10-31T06:56:05;48.47;;;24.85;;
56455;SDS011;42354;53.218;6.564;2022-10-31T06:58:31;45.85;;;24.08;;
56455;SDS011;42354;53.218;6.564;2022-10-31T07:00:58;45.72;;;23.83;;
56455;SDS011;42354;53.218;6.564;2022-10-31T07:03:25;54.95;;;25.73;;
56455;SDS011;42354;53.218;6.564;2022-10-31T07:05:51;45.30;;;23.33;;
56455;SDS011;42354;53.218;6.564;2022-10-31T07:08:17;46.35;;;23.27;;
56455;SDS011;42354;53.218;6.564;2022-10-31T07:10:42;46.13;;;24.90;;
56455;SDS011;42354;53.218;6.564;2022-10-31T07:13:15;44.17;;;23.50;;
56455;SDS011;42354;53.218;6.564;2022-10-31T07:15:41;44.17;;;24.02;;
56455;SDS011;42354;53.218;6.564;2022-10-31T07:18:08;46.03;;;22.88;;
56455;SDS011;42354;53.218;6.564;2022-10-31T07:20:35;45.10;;;25.02;;
56455;SDS011;42354;53.218;6.564;2022-10-31T07:23:00;46.58;;;24.30;;
56455;SDS011;42354;53.218;6.564;2022-10-31T07:25:27;47.42;;;24.60;;
56455;SDS011;42354;53.218;6.564;2022-10-31T07:27:53;49.03;;;25.40;;
56455;SDS011;42354;53.218;6.564;2022-10-31T07:30:18;53.00;;;25.55;;
56455;SDS011;42354;53.218;6.564;2022-10-31T07:32:45;46.78;;;24.95;;
56455;SDS011;42354;53.218;6.564;2022-10-31T07:35:18;52.35;;;26.27;;
56455;SDS011;42354;53.218;6.564;2022-10-31T07:37:45;48.83;;;25.05;;
56455;SDS011;42354;53.218;6.564;2022-10-31T07:40:17;49.00;;;25.98;;
56455;SDS011;42354;53.218;6.564;2022-10-31T07:42:45;48.50;;;25.58;;
56455;SDS011;42354;53.218;6.564;2022-10-31T07:45:15;56.45;;;26.85;;
56455;SDS011;42354;53.218;6.564;2022-10-31T07:47:46;48.97;;;26.65;;
56455;SDS011;42354;53.218;6.564;2022-10-31T07:50:33;44.97;;;24.98;;
56455;SDS011;42354;53.218;6.564;2022-10-31T07:55:27;46.17;;;25.33;;
56455;SDS011;42354;53.218;6.564;2022-10-31T07:57:57;54.72;;;27.05;;
56455;SDS011;42354;53.218;6.564;2022-10-31T08:00:23;46.63;;;26.02;;
56455;SDS011;42354;53.218;6.564;2022-10-31T08:02:55;46.63;;;24.48;;
56455;SDS011;42354;53.218;6.564;2022-10-31T08:05:22;43.63;;;24.15;;
56455;SDS011;42354;53.218;6.564;2022-10-31T08:07:47;48.13;;;25.52;;
56455;SDS011;42354;53.218;6.564;2022-10-31T08:10:12;43.05;;;23.85;;
56455;SDS011;42354;53.218;6.564;2022-10-31T08:12:38;44.47;;;24.40;;
56455;SDS011;42354;53.218;6.564;2022-10-31T08:15:03;40.38;;;23.35;;
56455;SDS011;42354;53.218;6.564;2022-10-31T08:17:30;42.22;;;22.65;;
56455;SDS011;42354;53.218;6.564;2022-10-31T08:19:59;39.35;;;22.27;;
56455;SDS011;42354;53.218;6.564;2022-10-31T08:22:24;36.63;;;21.92;;
56455;SDS011;42354;53.218;6.564;2022-10-31T08:24:50;37.40;;;22.17;;
56455;SDS011;42354;53.218;6.564;2022-10-31T08:27:15;37.58;;;22.48;;
56455;SDS011;42354;53.218;6.564;2022-10-31T08:29:40;39.60;;;22.35;;
56455;SDS011;42354;53.218;6.564;2022-10-31T08:32:06;36.00;;;20.83;;
56455;SDS011;42354;53.218;6.564;2022-10-31T08:34:31;34.03;;;20.35;;
56455;SDS011;42354;53.218;6.564;2022-10-31T08:36:56;36.75;;;20.85;;
56455;SDS011;42354;53.218;6.564;2022-10-31T08:39:22;36.55;;;20.98;;
56455;SDS011;42354;53.218;6.564;2022-10-31T08:41:47;34.47;;;20.20;;
56455;SDS011;42354;53.218;6.564;2022-10-31T08:44:12;35.50;;;21.30;;
56455;SDS011;42354;53.218;6.564;2022-10-31T08:46:40;37.45;;;20.48;;
56455;SDS011;42354;53.218;6.564;2022-10-31T08:49:06;32.05;;;20.77;;
56455;SDS011;42354;53.218;6.564;2022-10-31T08:51:31;35.45;;;21.10;;
56455;SDS011;42354;53.218;6.564;2022-10-31T08:53:56;32.25;;;19.42;;
56455;SDS011;42354;53.218;6.564;2022-10-31T08:56:22;32.00;;;19.10;;
56455;SDS011;42354;53.218;6.564;2022-10-31T08:58:48;30.75;;;19.48;;
56455;SDS011;42354;53.218;6.564;2022-10-31T09:01:13;30.13;;;19.67;;
56455;SDS011;42354;53.218;6.564;2022-10-31T09:03:38;32.88;;;18.13;;
56455;SDS011;42354;53.218;6.564;2022-10-31T09:06:04;29.52;;;17.50;;
56455;SDS011;42354;53.218;6.564;2022-10-31T09:08:33;28.02;;;16.48;;
56455;SDS011;42354;53.218;6.564;2022-10-31T09:13:29;27.52;;;16.40;;
56455;SDS011;42354;53.218;6.564;2022-10-31T09:15:55;23.10;;;15.38;;
56455;SDS011;42354;53.218;6.564;2022-10-31T09:18:21;25.38;;;16.30;;
56455;SDS011;42354;53.218;6.564;2022-10-31T09:20:49;26.15;;;16.08;;
56455;SDS011;42354;53.218;6.564;2022-10-31T09:23:17;30.00;;;15.32;;
56455;SDS011;42354;53.218;6.564;2022-10-31T09:25:46;28.55;;;15.50;;
56455;SDS011;42354;53.218;6.564;2022-10-31T09:28:13;23.80;;;15.52;;
56455;SDS011;42354;53.218;6.564;2022-10-31T09:33:12;23.33;;;15.02;;
56455;SDS011;42354;53.218;6.564;2022-10-31T09:35:41;25.63;;;14.77;;
56455;SDS011;42354;53.218;6.564;2022-10-31T09:38:16;26.13;;;15.07;;
56455;SDS011;42354;53.218;6.564;2022-10-31T09:41:01;25.80;;;14.00;;
56455;SDS011;42354;53.218;6.564;2022-10-31T09:51:24;19.42;;;13.10;;
56455;SDS011;42354;53.218;6.564;2022-10-31T09:54:09;19.77;;;13.05;;
56455;SDS011;42354;53.218;6.564;2022-10-31T09:56:39;20.05;;;12.73;;
56455;SDS011;42354;53.218;6.564;2022-10-31T09:59:05;19.10;;;12.75;;
56455;SDS011;42354;53.218;6.564;2022-10-31T10:01:51;20.08;;;12.88;;
56455;SDS011;42354;53.218;6.564;2022-10-31T10:06:58;19.90;;;12.30;;
56455;SDS011;42354;53.218;6.564;2022-10-31T10:09:33;23.17;;;12.27;;
56455;SDS011;42354;53.218;6.564;2022-10-31T10:15:06;18.23;;;11.52;;
56455;SDS011;42354;53.218;6.564;2022-10-31T10:17:43;18.13;;;10.77;;
56455;SDS011;42354;53.218;6.564;2022-10-31T10:20:43;19.23;;;11.10;;
56455;SDS011;42354;53.218;6.564;2022-10-31T10:28:38;22.02;;;11.70;;
56455;SDS011;42354;53.218;6.564;2022-10-31T10:31:07;16.92;;;11.07;;
56455;SDS011;42354;53.218;6.564;2022-10-31T10:33:40;16.60;;;11.23;;
56455;SDS011;42354;53.218;6.564;2022-10-31T10:36:13;17.10;;;11.05;;
56455;SDS011;42354;53.218;6.564;2022-10-31T10:38:53;18.17;;;11.60;;
56455;SDS011;42354;53.218;6.564;2022-10-31T10:41:24;17.85;;;11.50;;
56455;SDS011;42354;53.218;6.564;2022-10-31T10:43:55;18.85;;;11.18;;
56455;SDS011;42354;53.218;6.564;2022-10-31T11:02:49;20.83;;;14.55;;
56455;SDS011;42354;53.218;6.564;2022-10-31T11:05:26;21.45;;;13.77;;
56455;SDS011;42354;53.218;6.564;2022-10-31T11:07:57;22.13;;;13.43;;
56455;SDS011;42354;53.218;6.564;2022-10-31T11:10:23;20.15;;;12.55;;
56455;SDS011;42354;53.218;6.564;2022-10-31T11:13:00;19.75;;;13.02;;
56455;SDS011;42354;53.218;6.564;2022-10-31T11:15:54;19.05;;;12.20;;
56455;SDS011;42354;53.218;6.564;2022-10-31T11:18:25;20.40;;;12.07;;
56455;SDS011;42354;53.218;6.564;2022-10-31T11:20:54;18.40;;;11.45;;
56455;SDS011;42354;53.218;6.564;2022-10-31T11:23:22;18.25;;;10.95;;
56455;SDS011;42354;53.218;6.564;2022-10-31T11:28:25;20.58;;;11.35;;
56455;SDS011;42354;53.218;6.564;2022-10-31T11:31:12;17.33;;;10.48;;
56455;SDS011;42354;53.218;6.564;2022-10-31T11:33:47;16.38;;;9.98;;
56455;SDS011;42354;53.218;6.564;2022-10-31T11:36:26;15.20;;;9.68;;
56455;SDS011;42354;53.218;6.564;2022-10-31T11:38:56;17.73;;;10.55;;
56455;SDS011;42354;53.218;6.564;2022-10-31T11:41:35;15.05;;;9.45;;
56455;SDS011;42354;53.218;6.564;2022-10-31T11:44:28;17.83;;;10.50;;
56455;SDS011;42354;53.218;6.564;2022-10-31T11:46:58;17.50;;;10.52;;
56455;SDS011;42354;53.218;6.564;2022-10-31T11:49:42;15.15;;;9.48;;
56455;SDS011;42354;53.218;6.564;2022-10-31T11:57:23;9.98;;;5.70;;
56455;SDS011;42354;53.218;6.564;2022-10-31T11:59:55;11.15;;;5.97;;
56455;SDS011;42354;53.218;6.564;2022-10-31T12:02:24;12.15;;;6.82;;
56455;SDS011;42354;53.218;6.564;2022-10-31T12:04:58;18.20;;;6.25;;
56455;SDS011;42354;53.218;6.564;2022-10-31T12:07:34;11.85;;;5.65;;
56455;SDS011;42354;53.218;6.564;2022-10-31T12:10:13;18.65;;;6.70;;
56455;SDS011;42354;53.218;6.564;2022-10-31T12:15:36;12.40;;;7.40;;
56455;SDS011;42354;53.218;6.564;2022-10-31T12:21:21;13.43;;;7.90;;
56455;SDS011;42354;53.218;6.564;2022-10-31T12:29:19;13.57;;;7.55;;
56455;SDS011;42354;53.218;6.564;2022-10-31T12:40:57;12.35;;;7.00;;
56455;SDS011;42354;53.218;6.564;2022-10-31T12:43:34;17.15;;;7.35;;
56455;SDS011;42354;53.218;6.564;2022-10-31T12:46:01;11.90;;;6.80;;
56455;SDS011;42354;53.218;6.564;2022-10-31T12:51:26;16.98;;;7.00;;
56455;SDS011;42354;53.218;6.564;2022-10-31T12:59:10;16.77;;;6.07;;
56455;SDS011;42354;53.218;6.564;2022-10-31T13:01:59;14.70;;;5.50;;
56455;SDS011;42354;53.218;6.564;2022-10-31T13:07:24;13.88;;;5.22;;
56455;SDS011;42354;53.218;6.564;2022-10-31T13:10:07;17.85;;;5.80;;
56455;SDS011;42354;53.218;6.564;2022-10-31T13:12:41;14.07;;;6.40;;
56455;SDS011;42354;53.218;6.564;2022-10-31T13:15:16;16.58;;;5.97;;
56455;SDS011;42354;53.218;6.564;2022-10-31T13:17:49;12.98;;;5.45;;
56455;SDS011;42354;53.218;6.564;2022-10-31T13:20:20;13.18;;;3.58;;
56455;SDS011;42354;53.218;6.564;2022-10-31T13:22:52;14.02;;;4.45;;
56455;SDS011;42354;53.218;6.564;2022-10-31T13:27:55;14.48;;;4.70;;
56455;SDS011;42354;53.218;6.564;2022-10-31T13:30:22;12.40;;;4.10;;
56455;SDS011;42354;53.218;6.564;2022-10-31T13:35:38;19.05;;;7.43;;
56455;SDS011;42354;53.218;6.564;2022-10-31T13:38:15;14.93;;;6.25;;
56455;SDS011;42354;53.218;6.564;2022-10-31T13:48:58;11.90;;;4.22;;
56455;SDS011;42354;53.218;6.564;2022-10-31T13:51:25;11.82;;;4.65;;
56455;SDS011;42354;53.218;6.564;2022-10-31T13:56:21;18.55;;;5.90;;
56455;SDS011;42354;53.218;6.564;2022-10-31T13:59:02;13.07;;;5.30;;
56455;SDS011;42354;53.218;6.564;2022-10-31T14:01:51;19.02;;;4.57;;
56455;SDS011;42354;53.218;6.564;2022-10-31T14:04:28;15.63;;;4.78;;
56455;SDS011;42354;53.218;6.564;2022-10-31T14:07:06;13.55;;;4.38;;
56455;SDS011;42354;53.218;6.564;2022-10-31T14:12:07;13.98;;;4.80;;
56455;SDS011;42354;53.218;6.564;2022-10-31T14:14:45;17.30;;;5.40;;
56455;SDS011;42354;53.218;6.564;2022-10-31T14:17:20;12.10;;;5.15;;
56455;SDS011;42354;53.218;6.564;2022-10-31T14:20:02;17.45;;;5.30;;
56455;SDS011;42354;53.218;6.564;2022-10-31T14:22:49;16.70;;;5.57;;
56455;SDS011;42354;53.218;6.564;2022-10-31T14:27:52;19.15;;;6.43;;
56455;SDS011;42354;53.218;6.564;2022-10-31T14:30:20;18.17;;;6.45;;
56455;SDS011;42354;53.218;6.564;2022-10-31T14:32:58;15.75;;;6.53;;
56455;SDS011;42354;53.218;6.564;2022-10-31T14:35:29;16.80;;;7.70;;
56455;SDS011;42354;53.218;6.564;2022-10-31T14:38:11;12.00;;;6.00;;
56455;SDS011;42354;53.218;6.564;2022-10-31T14:41:17;17.65;;;7.40;;
56455;SDS011;42354;53.218;6.564;2022-10-31T14:52:14;17.88;;;5.95;;
56455;SDS011;42354;53.218;6.564;2022-10-31T14:54:47;18.20;;;6.03;;
56455;SDS011;42354;53.218;6.564;2022-10-31T14:57:26;17.10;;;5.93;;
56455;SDS011;42354;53.218;6.564;2022-10-31T14:59:57;16.50;;;6.05;;
56455;SDS011;42354;53.218;6.564;2022-10-31T15:02:30;14.88;;;6.05;;
56455;SDS011;42354;53.218;6.564;2022-10-31T15:05:07;19.65;;;6.13;;
56455;SDS011;42354;53.218;6.564;2022-10-31T15:07:33;11.52;;;5.82;;
56455;SDS011;42354;53.218;6.564;2022-10-31T15:10:03;16.23;;;5.97;;
56455;SDS011;42354;53.218;6.564;2022-10-31T15:12:33;13.95;;;5.53;;
56455;SDS011;42354;53.218;6.564;2022-10-31T15:15:13;20.65;;;6.45;;
56455;SDS011;42354;53.218;6.564;2022-10-31T15:17:46;15.45;;;5.65;;
56455;SDS011;42354;53.218;6.564;2022-10-31T15:20:19;18.77;;;6.35;;
56455;SDS011;42354;53.218;6.564;2022-10-31T15:22:57;14.20;;;6.15;;
56455;SDS011;42354;53.218;6.564;2022-10-31T15:25:25;12.52;;;6.45;;
56455;SDS011;42354;53.218;6.564;2022-10-31T15:27:53;15.75;;;6.97;;
56455;SDS011;42354;53.218;6.564;2022-10-31T15:30:19;17.95;;;7.75;;
56455;SDS011;42354;53.218;6.564;2022-10-31T15:32:49;16.48;;;7.60;;
56455;SDS011;42354;53.218;6.564;2022-10-31T15:37:55;25.17;;;10.80;;
56455;SDS011;42354;53.218;6.564;2022-10-31T15:40:25;21.42;;;9.30;;
56455;SDS011;42354;53.218;6.564;2022-10-31T15:43:01;18.65;;;9.23;;
56455;SDS011;42354;53.218;6.564;2022-10-31T15:45:30;18.67;;;8.88;;
56455;SDS011;42354;53.218;6.564;2022-10-31T15:50:28;18.50;;;9.07;;
56455;SDS011;42354;53.218;6.564;2022-10-31T15:52:57;22.95;;;10.05;;
56455;SDS011;42354;53.218;6.564;2022-10-31T15:55:25;26.15;;;11.80;;
56455;SDS011;42354;53.218;6.564;2022-10-31T15:57:58;26.42;;;11.57;;
56455;SDS011;42354;53.218;6.564;2022-10-31T16:00:30;27.02;;;12.40;;
56455;SDS011;42354;53.218;6.564;2022-10-31T16:20:46;20.17;;;10.88;;
56455;SDS011;42354;53.218;6.564;2022-10-31T16:23:16;21.60;;;11.27;;
56455;SDS011;42354;53.218;6.564;2022-10-31T16:25:42;20.13;;;10.77;;
56455;SDS011;42354;53.218;6.564;2022-10-31T16:28:19;21.38;;;10.82;;
56455;SDS011;42354;53.218;6.564;2022-10-31T16:30:50;25.42;;;11.82;;
56455;SDS011;42354;53.218;6.564;2022-10-31T16:33:36;19.63;;;10.23;;
56455;SDS011;42354;53.218;6.564;2022-10-31T16:38:52;21.75;;;11.02;;
56455;SDS011;42354;53.218;6.564;2022-10-31T16:41:17;24.48;;;10.15;;
56455;SDS011;42354;53.218;6.564;2022-10-31T16:43:43;26.15;;;9.43;;
56455;SDS011;42354;53.218;6.564;2022-10-31T16:46:12;22.77;;;9.70;;
56455;SDS011;42354;53.218;6.564;2022-10-31T16:48:41;19.08;;;9.27;;
56455;SDS011;42354;53.218;6.564;2022-10-31T16:51:09;20.10;;;9.27;;
56455;SDS011;42354;53.218;6.564;2022-10-31T16:53:34;18.15;;;8.48;;
56455;SDS011;42354;53.218;6.564;2022-10-31T16:56:01;19.15;;;8.88;;
56455;SDS011;42354;53.218;6.564;2022-10-31T16:58:29;20.73;;;9.30;;
56455;SDS011;42354;53.218;6.564;2022-10-31T17:00:58;18.83;;;9.85;;
56455;SDS011;42354;53.218;6.564;2022-10-31T17:03:24;22.50;;;10.30;;
56455;SDS011;42354;53.218;6.564;2022-10-31T17:05:50;18.08;;;9.05;;
56455;SDS011;42354;53.218;6.564;2022-10-31T17:08:15;17.38;;;9.43;;
56455;SDS011;42354;53.218;6.564;2022-10-31T17:10:41;18.38;;;10.10;;
56455;SDS011;42354;53.218;6.564;2022-10-31T17:13:11;18.88;;;10.80;;
56455;SDS011;42354;53.218;6.564;2022-10-31T17:15:42;18.73;;;9.38;;
56455;SDS011;42354;53.218;6.564;2022-10-31T17:18:11;21.50;;;10.95;;
56455;SDS011;42354;53.218;6.564;2022-10-31T17:20:38;23.60;;;11.40;;
56455;SDS011;42354;53.218;6.564;2022-10-31T17:23:03;20.17;;;10.77;;